sensor_id;sensor_type;location;lat;lon;timestamp;temperature;humidity
30174;DHT22;16985;50.814;8.530;2022-10-17T00:00:04;13.20;99.90
30174;DHT22;16985;50.814;8.530;2022-10-17T00:02:30;13.20;99.90
30174;DHT22;16985;50.814;8.530;2022-10-17T00:04:56;13.20;99.90
30174;DHT22;16985;50.814;8.530;2022-10-17T00:07:22;13.20;99.90
30174;DHT22;16985;50.814;8.530;2022-10-17T00:09:48;13.10;99.90
30174;DHT22;16985;50.814;8.530;2022-10-17T00:12:14;13.10;99.90
30174;DHT22;16985;50.814;8.530;2022-10-17T00:14:39;13.20;99.90
30174;DHT22;16985;50.814;8.530;2022-10-17T00:17:05;13.20;99.90
30174;DHT22;16985;50.814;8.530;2022-10-17T00:19:31;13.20;99.90
30174;DHT22;16985;50.814;8.530;2022-10-17T00:21:57;13.20;99.90
30174;DHT22;16985;50.814;8.530;2022-10-17T00:24:23;13.20;99.90
30174;DHT22;16985;50.814;8.530;2022-10-17T00:26:48;13.20;99.90
30174;DHT22;16985;50.814;8.530;2022-10-17T00:29:14;13.20;99.90
30174;DHT22;16985;50.814;8.530;2022-10-17T00:31:40;13.20;99.90
30174;DHT22;16985;50.814;8.530;2022-10-17T00:34:06;13.20;99.90
30174;DHT22;16985;50.814;8.530;2022-10-17T00:36:32;13.20;99.90
30174;DHT22;16985;50.814;8.530;2022-10-17T00:38:59;13.20;99.90
30174;DHT22;16985;50.814;8.530;2022-10-17T00:41:28;13.20;99.90
30174;DHT22;16985;50.814;8.530;2022-10-17T00:44:01;13.20;99.90
30174;DHT22;16985;50.814;8.530;2022-10-17T00:46:30;13.20;99.90
30174;DHT22;16985;50.814;8.530;2022-10-17T00:49:00;13.20;99.90
30174;DHT22;16985;50.814;8.530;2022-10-17T00:54:41;13.20;99.90
30174;DHT22;16985;50.814;8.530;2022-10-17T00:57:10;13.20;99.90
30174;DHT22;16985;50.814;8.530;2022-10-17T00:59:37;13.20;99.90
30174;DHT22;16985;50.814;8.530;2022-10-17T01:02:06;13.20;99.90
30174;DHT22;16985;50.814;8.530;2022-10-17T01:04:36;13.20;99.90
30174;DHT22;16985;50.814;8.530;2022-10-17T01:07:02;13.10;99.90
30174;DHT22;16985;50.814;8.530;2022-10-17T01:09:28;13.10;99.90
30174;DHT22;16985;50.814;8.530;2022-10-17T01:12:03;13.00;99.90
30174;DHT22;16985;50.814;8.530;2022-10-17T01:26:58;12.90;99.90
30174;DHT22;16985;50.814;8.530;2022-10-17T01:30:17;12.80;99.90
30174;DHT22;16985;50.814;8.530;2022-10-17T01:33:52;12.80;99.90
30174;DHT22;16985;50.814;8.530;2022-10-17T01:36:10;12.90;99.90
30174;DHT22;16985;50.814;8.530;2022-10-17T01:41:21;12.90;99.90
30174;DHT22;16985;50.814;8.530;2022-10-17T01:43:58;12.90;99.90
30174;DHT22;16985;50.814;8.530;2022-10-17T01:46:36;12.90;99.90
30174;DHT22;16985;50.814;8.530;2022-10-17T01:49:09;12.90;99.90
30174;DHT22;16985;50.814;8.530;2022-10-17T01:51:50;12.90;99.90
30174;DHT22;16985;50.814;8.530;2022-10-17T01:54:26;12.80;99.90
30174;DHT22;16985;50.814;8.530;2022-10-17T01:57:04;12.80;99.90
30174;DHT22;16985;50.814;8.530;2022-10-17T01:59:52;12.80;99.90
30174;DHT22;16985;50.814;8.530;2022-10-17T02:02:20;12.70;99.90
30174;DHT22;16985;50.814;8.530;2022-10-17T02:04:49;12.80;99.90
30174;DHT22;16985;50.814;8.530;2022-10-17T02:07:16;12.70;99.90
30174;DHT22;16985;50.814;8.530;2022-10-17T02:09:42;12.70;99.90
30174;DHT22;16985;50.814;8.530;2022-10-17T02:15:23;12.70;99.90
30174;DHT22;16985;50.814;8.530;2022-10-17T02:21:19;12.70;99.90
30174;DHT22;16985;50.814;8.530;2022-10-17T02:23:58;12.70;99.90
30174;DHT22;16985;50.814;8.530;2022-10-17T02:26:43;12.70;99.90
30174;DHT22;16985;50.814;8.530;2022-10-17T02:29:25;12.70;99.90
30174;DHT22;16985;50.814;8.530;2022-10-17T02:32:02;12.70;99.90
30174;DHT22;16985;50.814;8.530;2022-10-17T02:34:34;12.70;99.90
30174;DHT22;16985;50.814;8.530;2022-10-17T02:37:05;12.70;99.90
30174;DHT22;16985;50.814;8.530;2022-10-17T02:39:32;12.70;99.90
30174;DHT22;16985;50.814;8.530;2022-10-17T02:42:01;12.70;99.90
30174;DHT22;16985;50.814;8.530;2022-10-17T02:44:30;12.70;99.90
30174;DHT22;16985;50.814;8.530;2022-10-17T02:47:10;12.70;99.90
30174;DHT22;16985;50.814;8.530;2022-10-17T02:49:44;12.70;99.90
30174;DHT22;16985;50.814;8.530;2022-10-17T02:52:38;12.70;99.90
30174;DHT22;16985;50.814;8.530;2022-10-17T02:55:15;12.70;99.90
30174;DHT22;16985;50.814;8.530;2022-10-17T02:57:52;12.70;99.90
30174;DHT22;16985;50.814;8.530;2022-10-17T03:00:21;12.70;99.90
30174;DHT22;16985;50.814;8.530;2022-10-17T03:02:50;12.70;99.90
30174;DHT22;16985;50.814;8.530;2022-10-17T03:05:21;12.70;99.90
30174;DHT22;16985;50.814;8.530;2022-10-17T03:07:49;12.70;99.90
30174;DHT22;16985;50.814;8.530;2022-10-17T03:10:15;12.70;99.90
30174;DHT22;16985;50.814;8.530;2022-10-17T03:12:41;12.70;99.90
30174;DHT22;16985;50.814;8.530;2022-10-17T03:15:08;12.70;99.90
30174;DHT22;16985;50.814;8.530;2022-10-17T03:17:36;12.70;99.90
30174;DHT22;16985;50.814;8.530;2022-10-17T03:20:03;12.70;99.90
30174;DHT22;16985;50.814;8.530;2022-10-17T03:22:30;12.70;99.90
30174;DHT22;16985;50.814;8.530;2022-10-17T03:24:57;12.70;99.90
30174;DHT22;16985;50.814;8.530;2022-10-17T03:27:24;12.70;99.90
30174;DHT22;16985;50.814;8.530;2022-10-17T03:29:49;12.70;99.90
30174;DHT22;16985;50.814;8.530;2022-10-17T03:32:16;12.70;99.90
30174;DHT22;16985;50.814;8.530;2022-10-17T03:34:42;12.80;99.90
30174;DHT22;16985;50.814;8.530;2022-10-17T03:37:08;12.70;99.90
30174;DHT22;16985;50.814;8.530;2022-10-17T03:39:36;12.70;99.90
30174;DHT22;16985;50.814;8.530;2022-10-17T03:42:02;12.70;99.90
30174;DHT22;16985;50.814;8.530;2022-10-17T03:44:28;12.70;99.90
30174;DHT22;16985;50.814;8.530;2022-10-17T03:46:53;12.70;99.90
30174;DHT22;16985;50.814;8.530;2022-10-17T03:49:19;12.80;99.90
30174;DHT22;16985;50.814;8.530;2022-10-17T03:51:45;12.80;99.90
30174;DHT22;16985;50.814;8.530;2022-10-17T03:54:13;12.80;99.90
30174;DHT22;16985;50.814;8.530;2022-10-17T03:56:39;12.80;99.90
30174;DHT22;16985;50.814;8.530;2022-10-17T03:59:12;12.80;99.90
30174;DHT22;16985;50.814;8.530;2022-10-17T04:01:40;12.80;99.90
30174;DHT22;16985;50.814;8.530;2022-10-17T04:04:06;12.80;99.90
30174;DHT22;16985;50.814;8.530;2022-10-17T04:06:34;12.80;99.90
30174;DHT22;16985;50.814;8.530;2022-10-17T04:09:01;12.80;99.90
30174;DHT22;16985;50.814;8.530;2022-10-17T04:11:36;12.80;99.90
30174;DHT22;16985;50.814;8.530;2022-10-17T04:14:03;12.80;99.90
30174;DHT22;16985;50.814;8.530;2022-10-17T04:16:29;12.80;99.90
30174;DHT22;16985;50.814;8.530;2022-10-17T04:18:59;12.80;99.90
30174;DHT22;16985;50.814;8.530;2022-10-17T04:21:28;12.80;99.90
30174;DHT22;16985;50.814;8.530;2022-10-17T04:23:59;12.80;99.90
30174;DHT22;16985;50.814;8.530;2022-10-17T04:26:43;12.80;99.90
30174;DHT22;16985;50.814;8.530;2022-10-17T04:29:09;12.80;99.90
30174;DHT22;16985;50.814;8.530;2022-10-17T04:31:36;12.80;99.90
30174;DHT22;16985;50.814;8.530;2022-10-17T04:34:22;12.80;99.90
30174;DHT22;16985;50.814;8.530;2022-10-17T04:36:48;12.90;99.90
30174;DHT22;16985;50.814;8.530;2022-10-17T04:39:14;12.90;99.90
30174;DHT22;16985;50.814;8.530;2022-10-17T04:41:40;12.80;99.90
30174;DHT22;16985;50.814;8.530;2022-10-17T04:44:09;12.80;99.90
30174;DHT22;16985;50.814;8.530;2022-10-17T04:46:38;12.80;99.90
30174;DHT22;16985;50.814;8.530;2022-10-17T04:49:04;12.80;99.90
30174;DHT22;16985;50.814;8.530;2022-10-17T04:51:31;12.80;99.90
30174;DHT22;16985;50.814;8.530;2022-10-17T04:54:09;12.80;99.90
30174;DHT22;16985;50.814;8.530;2022-10-17T04:56:37;12.70;99.90
30174;DHT22;16985;50.814;8.530;2022-10-17T04:59:03;12.70;99.90
30174;DHT22;16985;50.814;8.530;2022-10-17T05:01:29;12.70;99.90
30174;DHT22;16985;50.814;8.530;2022-10-17T05:03:56;12.70;99.90
30174;DHT22;16985;50.814;8.530;2022-10-17T05:06:24;12.70;99.90
30174;DHT22;16985;50.814;8.530;2022-10-17T05:09:15;12.70;99.90
30174;DHT22;16985;50.814;8.530;2022-10-17T05:11:42;12.80;99.90
30174;DHT22;16985;50.814;8.530;2022-10-17T05:14:08;12.70;99.90
30174;DHT22;16985;50.814;8.530;2022-10-17T05:16:34;12.70;99.90
30174;DHT22;16985;50.814;8.530;2022-10-17T05:19:01;12.70;99.90
30174;DHT22;16985;50.814;8.530;2022-10-17T05:21:32;12.70;99.90
30174;DHT22;16985;50.814;8.530;2022-10-17T05:23:58;12.70;99.90
30174;DHT22;16985;50.814;8.530;2022-10-17T05:26:24;12.60;99.90
30174;DHT22;16985;50.814;8.530;2022-10-17T05:28:51;12.70;99.90
30174;DHT22;16985;50.814;8.530;2022-10-17T05:31:19;12.70;99.90
30174;DHT22;16985;50.814;8.530;2022-10-17T05:33:45;12.70;99.90
30174;DHT22;16985;50.814;8.530;2022-10-17T05:36:12;12.70;99.90
30174;DHT22;16985;50.814;8.530;2022-10-17T05:38:39;12.70;99.90
30174;DHT22;16985;50.814;8.530;2022-10-17T05:41:05;12.60;99.90
30174;DHT22;16985;50.814;8.530;2022-10-17T05:43:34;12.70;99.90
30174;DHT22;16985;50.814;8.530;2022-10-17T05:46:04;12.60;99.90
30174;DHT22;16985;50.814;8.530;2022-10-17T05:48:32;12.60;99.90
30174;DHT22;16985;50.814;8.530;2022-10-17T05:51:03;12.60;99.90
30174;DHT22;16985;50.814;8.530;2022-10-17T05:53:32;12.60;99.90
30174;DHT22;16985;50.814;8.530;2022-10-17T05:56:05;12.60;99.90
30174;DHT22;16985;50.814;8.530;2022-10-17T05:58:33;12.60;99.90
30174;DHT22;16985;50.814;8.530;2022-10-17T06:01:03;12.60;99.90
30174;DHT22;16985;50.814;8.530;2022-10-17T06:03:31;12.60;99.90
30174;DHT22;16985;50.814;8.530;2022-10-17T06:06:09;12.60;99.90
30174;DHT22;16985;50.814;8.530;2022-10-17T06:08:39;12.50;99.90
30174;DHT22;16985;50.814;8.530;2022-10-17T06:11:07;12.50;99.90
30174;DHT22;16985;50.814;8.530;2022-10-17T06:13:32;12.50;99.90
30174;DHT22;16985;50.814;8.530;2022-10-17T06:16:01;12.50;99.90
30174;DHT22;16985;50.814;8.530;2022-10-17T06:18:27;12.50;99.90
30174;DHT22;16985;50.814;8.530;2022-10-17T06:20:53;12.50;99.90
30174;DHT22;16985;50.814;8.530;2022-10-17T06:23:21;12.50;99.90
30174;DHT22;16985;50.814;8.530;2022-10-17T06:25:58;12.60;99.90
30174;DHT22;16985;50.814;8.530;2022-10-17T06:28:28;12.50;99.90
30174;DHT22;16985;50.814;8.530;2022-10-17T06:30:56;12.50;99.90
30174;DHT22;16985;50.814;8.530;2022-10-17T06:33:22;12.40;99.90
30174;DHT22;16985;50.814;8.530;2022-10-17T06:35:53;12.50;99.90
30174;DHT22;16985;50.814;8.530;2022-10-17T06:38:21;12.50;99.90
30174;DHT22;16985;50.814;8.530;2022-10-17T06:40:50;12.50;99.90
30174;DHT22;16985;50.814;8.530;2022-10-17T06:43:16;12.40;99.90
30174;DHT22;16985;50.814;8.530;2022-10-17T06:45:55;12.50;99.90
30174;DHT22;16985;50.814;8.530;2022-10-17T06:48:35;12.40;99.90
30174;DHT22;16985;50.814;8.530;2022-10-17T06:51:14;12.40;99.90
30174;DHT22;16985;50.814;8.530;2022-10-17T06:53:47;12.40;99.90
30174;DHT22;16985;50.814;8.530;2022-10-17T06:56:48;12.40;99.90
30174;DHT22;16985;50.814;8.530;2022-10-17T06:59:20;12.50;99.90
30174;DHT22;16985;50.814;8.530;2022-10-17T07:01:55;12.40;99.90
30174;DHT22;16985;50.814;8.530;2022-10-17T07:04:23;12.40;99.90
30174;DHT22;16985;50.814;8.530;2022-10-17T07:06:49;12.50;99.90
30174;DHT22;16985;50.814;8.530;2022-10-17T07:09:18;12.50;99.90
30174;DHT22;16985;50.814;8.530;2022-10-17T07:11:44;12.50;99.90
30174;DHT22;16985;50.814;8.530;2022-10-17T07:14:10;12.50;99.90
30174;DHT22;16985;50.814;8.530;2022-10-17T07:16:36;12.60;99.90
30174;DHT22;16985;50.814;8.530;2022-10-17T07:19:08;12.60;99.90
30174;DHT22;16985;50.814;8.530;2022-10-17T07:21:36;12.70;99.90
30174;DHT22;16985;50.814;8.530;2022-10-17T07:24:03;12.70;99.90
30174;DHT22;16985;50.814;8.530;2022-10-17T07:26:32;12.70;99.90
30174;DHT22;16985;50.814;8.530;2022-10-17T07:28:57;12.70;99.90
30174;DHT22;16985;50.814;8.530;2022-10-17T07:31:46;12.80;99.90
30174;DHT22;16985;50.814;8.530;2022-10-17T07:34:13;12.80;99.90
30174;DHT22;16985;50.814;8.530;2022-10-17T07:36:39;12.90;99.90
30174;DHT22;16985;50.814;8.530;2022-10-17T07:39:06;12.90;99.90
30174;DHT22;16985;50.814;8.530;2022-10-17T07:41:34;13.00;99.90
30174;DHT22;16985;50.814;8.530;2022-10-17T07:44:00;13.00;99.90
30174;DHT22;16985;50.814;8.530;2022-10-17T07:46:31;13.10;99.90
30174;DHT22;16985;50.814;8.530;2022-10-17T07:48:58;13.20;99.90
30174;DHT22;16985;50.814;8.530;2022-10-17T07:51:23;13.30;99.90
30174;DHT22;16985;50.814;8.530;2022-10-17T07:53:49;13.30;99.90
30174;DHT22;16985;50.814;8.530;2022-10-17T07:56:15;13.40;99.90
30174;DHT22;16985;50.814;8.530;2022-10-17T07:58:41;13.50;99.90
30174;DHT22;16985;50.814;8.530;2022-10-17T08:01:08;13.50;99.90
30174;DHT22;16985;50.814;8.530;2022-10-17T08:03:40;13.60;99.90
30174;DHT22;16985;50.814;8.530;2022-10-17T08:06:08;13.70;99.90
30174;DHT22;16985;50.814;8.530;2022-10-17T08:08:33;13.70;99.90
30174;DHT22;16985;50.814;8.530;2022-10-17T08:11:05;13.80;99.90
30174;DHT22;16985;50.814;8.530;2022-10-17T08:13:34;13.80;99.90
30174;DHT22;16985;50.814;8.530;2022-10-17T08:16:06;13.90;99.90
30174;DHT22;16985;50.814;8.530;2022-10-17T08:18:34;14.00;99.90
30174;DHT22;16985;50.814;8.530;2022-10-17T08:21:01;14.00;99.90
30174;DHT22;16985;50.814;8.530;2022-10-17T08:23:30;14.10;99.90
30174;DHT22;16985;50.814;8.530;2022-10-17T08:26:00;14.20;99.90
30174;DHT22;16985;50.814;8.530;2022-10-17T08:28:27;14.30;99.90
30174;DHT22;16985;50.814;8.530;2022-10-17T08:31:04;14.40;99.90
30174;DHT22;16985;50.814;8.530;2022-10-17T08:33:34;14.50;99.90
30174;DHT22;16985;50.814;8.530;2022-10-17T08:36:01;14.50;99.90
30174;DHT22;16985;50.814;8.530;2022-10-17T08:38:28;14.50;99.90
30174;DHT22;16985;50.814;8.530;2022-10-17T08:41:00;14.60;99.90
30174;DHT22;16985;50.814;8.530;2022-10-17T08:46:53;14.80;99.90
30174;DHT22;16985;50.814;8.530;2022-10-17T08:52:34;15.00;99.90
30174;DHT22;16985;50.814;8.530;2022-10-17T08:55:12;15.10;99.90
30174;DHT22;16985;50.814;8.530;2022-10-17T08:57:40;15.20;99.90
30174;DHT22;16985;50.814;8.530;2022-10-17T09:00:17;15.30;99.90
30174;DHT22;16985;50.814;8.530;2022-10-17T09:03:07;15.40;99.90
30174;DHT22;16985;50.814;8.530;2022-10-17T09:05:53;15.40;99.90
30174;DHT22;16985;50.814;8.530;2022-10-17T09:08:39;15.50;99.90
30174;DHT22;16985;50.814;8.530;2022-10-17T09:14:29;15.80;99.90
30174;DHT22;16985;50.814;8.530;2022-10-17T09:17:32;15.90;99.90
30174;DHT22;16985;50.814;8.530;2022-10-17T09:23:01;16.30;99.90
30174;DHT22;16985;50.814;8.530;2022-10-17T09:25:34;16.40;99.90
30174;DHT22;16985;50.814;8.530;2022-10-17T09:28:11;16.60;99.90
30174;DHT22;16985;50.814;8.530;2022-10-17T09:30:50;16.80;99.90
30174;DHT22;16985;50.814;8.530;2022-10-17T09:33:26;17.00;99.90
30174;DHT22;16985;50.814;8.530;2022-10-17T09:35:56;17.10;99.90
30174;DHT22;16985;50.814;8.530;2022-10-17T09:38:27;17.80;99.90
30174;DHT22;16985;50.814;8.530;2022-10-17T09:41:00;17.50;99.90
30174;DHT22;16985;50.814;8.530;2022-10-17T09:43:27;17.70;99.90
30174;DHT22;16985;50.814;8.530;2022-10-17T09:46:17;17.80;99.90
30174;DHT22;16985;50.814;8.530;2022-10-17T09:48:58;17.90;99.90
30174;DHT22;16985;50.814;8.530;2022-10-17T09:51:26;18.10;99.90
30174;DHT22;16985;50.814;8.530;2022-10-17T09:54:00;18.30;99.90
30174;DHT22;16985;50.814;8.530;2022-10-17T09:56:28;18.30;99.90
30174;DHT22;16985;50.814;8.530;2022-10-17T09:58:58;18.40;99.90
30174;DHT22;16985;50.814;8.530;2022-10-17T10:01:26;18.50;99.90
30174;DHT22;16985;50.814;8.530;2022-10-17T10:04:14;18.50;99.90
30174;DHT22;16985;50.814;8.530;2022-10-17T10:07:01;18.70;99.90
30174;DHT22;16985;50.814;8.530;2022-10-17T10:09:31;18.70;99.90
30174;DHT22;16985;50.814;8.530;2022-10-17T10:12:02;18.90;99.90
30174;DHT22;16985;50.814;8.530;2022-10-17T10:14:36;19.00;99.90
30174;DHT22;16985;50.814;8.530;2022-10-17T10:17:08;19.20;99.90
30174;DHT22;16985;50.814;8.530;2022-10-17T10:19:51;19.30;99.90
30174;DHT22;16985;50.814;8.530;2022-10-17T10:22:19;19.60;99.90
30174;DHT22;16985;50.814;8.530;2022-10-17T10:25:06;19.70;99.90
30174;DHT22;16985;50.814;8.530;2022-10-17T10:27:36;19.90;99.90
30174;DHT22;16985;50.814;8.530;2022-10-17T10:30:05;20.10;99.90
30174;DHT22;16985;50.814;8.530;2022-10-17T10:32:33;20.30;99.90
30174;DHT22;16985;50.814;8.530;2022-10-17T10:35:21;20.40;99.90
30174;DHT22;16985;50.814;8.530;2022-10-17T10:37:58;20.60;99.90
30174;DHT22;16985;50.814;8.530;2022-10-17T10:40:31;20.80;99.90
30174;DHT22;16985;50.814;8.530;2022-10-17T10:43:02;20.90;99.90
30174;DHT22;16985;50.814;8.530;2022-10-17T10:48:24;21.20;97.80
30174;DHT22;16985;50.814;8.530;2022-10-17T10:51:13;21.40;96.40
30174;DHT22;16985;50.814;8.530;2022-10-17T10:56:55;21.60;94.70
30174;DHT22;16985;50.814;8.530;2022-10-17T11:02:25;21.80;93.50
30174;DHT22;16985;50.814;8.530;2022-10-17T11:05:02;21.80;93.10
30174;DHT22;16985;50.814;8.530;2022-10-17T11:07:57;21.90;93.50
30174;DHT22;16985;50.814;8.530;2022-10-17T11:10:59;22.00;93.00
30174;DHT22;16985;50.814;8.530;2022-10-17T11:13:49;22.10;93.10
30174;DHT22;16985;50.814;8.530;2022-10-17T11:24:19;22.20;92.80
30174;DHT22;16985;50.814;8.530;2022-10-17T11:26:54;22.30;92.30
30174;DHT22;16985;50.814;8.530;2022-10-17T11:29:32;22.40;91.30
30174;DHT22;16985;50.814;8.530;2022-10-17T11:32:16;22.40;91.20
30174;DHT22;16985;50.814;8.530;2022-10-17T11:34:48;22.50;91.50
30174;DHT22;16985;50.814;8.530;2022-10-17T11:37:20;22.50;91.60
30174;DHT22;16985;50.814;8.530;2022-10-17T11:39:57;22.60;91.40
30174;DHT22;16985;50.814;8.530;2022-10-17T11:42:33;22.80;91.30
30174;DHT22;16985;50.814;8.530;2022-10-17T11:45:09;22.90;90.70
30174;DHT22;16985;50.814;8.530;2022-10-17T11:47:48;22.90;90.40
30174;DHT22;16985;50.814;8.530;2022-10-17T11:50:29;23.10;90.10
30174;DHT22;16985;50.814;8.530;2022-10-17T11:53:02;23.20;89.90
30174;DHT22;16985;50.814;8.530;2022-10-17T11:55:31;23.40;89.80
30174;DHT22;16985;50.814;8.530;2022-10-17T12:12:38;24.10;85.00
30174;DHT22;16985;50.814;8.530;2022-10-17T12:18:02;24.30;84.70
30174;DHT22;16985;50.814;8.530;2022-10-17T12:20:31;24.40;84.00
30174;DHT22;16985;50.814;8.530;2022-10-17T12:25:53;24.40;81.20
30174;DHT22;16985;50.814;8.530;2022-10-17T12:28:41;24.30;80.30
30174;DHT22;16985;50.814;8.530;2022-10-17T12:33:52;24.20;81.10
30174;DHT22;16985;50.814;8.530;2022-10-17T12:58:10;24.40;79.90
30174;DHT22;16985;50.814;8.530;2022-10-17T13:00:52;24.40;79.50
30174;DHT22;16985;50.814;8.530;2022-10-17T13:03:22;24.40;79.50
30174;DHT22;16985;50.814;8.530;2022-10-17T13:05:53;24.40;79.20
30174;DHT22;16985;50.814;8.530;2022-10-17T13:08:29;24.30;79.50
30174;DHT22;16985;50.814;8.530;2022-10-17T13:10:57;24.30;79.90
30174;DHT22;16985;50.814;8.530;2022-10-17T13:13:35;24.30;79.60
30174;DHT22;16985;50.814;8.530;2022-10-17T13:16:01;24.30;80.30
30174;DHT22;16985;50.814;8.530;2022-10-17T13:18:29;24.30;80.60
30174;DHT22;16985;50.814;8.530;2022-10-17T13:23:34;24.30;80.30
30174;DHT22;16985;50.814;8.530;2022-10-17T13:28:36;24.40;81.00
30174;DHT22;16985;50.814;8.530;2022-10-17T13:31:02;24.40;79.30
30174;DHT22;16985;50.814;8.530;2022-10-17T13:33:35;24.40;79.30
30174;DHT22;16985;50.814;8.530;2022-10-17T13:36:06;24.40;79.60
30174;DHT22;16985;50.814;8.530;2022-10-17T13:38:37;24.50;80.10
30174;DHT22;16985;50.814;8.530;2022-10-17T13:41:03;24.50;80.60
30174;DHT22;16985;50.814;8.530;2022-10-17T13:43:36;24.50;80.90
30174;DHT22;16985;50.814;8.530;2022-10-17T13:46:03;24.60;80.10
30174;DHT22;16985;50.814;8.530;2022-10-17T13:48:32;24.60;78.60
30174;DHT22;16985;50.814;8.530;2022-10-17T13:51:02;24.70;78.70
30174;DHT22;16985;50.814;8.530;2022-10-17T13:58:58;24.70;77.80
30174;DHT22;16985;50.814;8.530;2022-10-17T14:01:27;24.60;77.80
30174;DHT22;16985;50.814;8.530;2022-10-17T14:03:53;24.50;78.60
30174;DHT22;16985;50.814;8.530;2022-10-17T14:06:24;24.60;78.70
30174;DHT22;16985;50.814;8.530;2022-10-17T14:11:40;24.40;78.60
30174;DHT22;16985;50.814;8.530;2022-10-17T14:14:20;24.30;78.60
30174;DHT22;16985;50.814;8.530;2022-10-17T14:16:48;24.20;79.10
30174;DHT22;16985;50.814;8.530;2022-10-17T14:19:34;24.10;79.40
30174;DHT22;16985;50.814;8.530;2022-10-17T14:22:34;23.90;79.70
30174;DHT22;16985;50.814;8.530;2022-10-17T14:25:01;23.80;80.50
30174;DHT22;16985;50.814;8.530;2022-10-17T14:27:36;23.60;81.10
30174;DHT22;16985;50.814;8.530;2022-10-17T14:32:55;23.40;82.90
30174;DHT22;16985;50.814;8.530;2022-10-17T14:35:23;23.30;82.70
30174;DHT22;16985;50.814;8.530;2022-10-17T14:38:00;23.10;83.10
30174;DHT22;16985;50.814;8.530;2022-10-17T14:40:29;23.10;83.50
30174;DHT22;16985;50.814;8.530;2022-10-17T14:42:59;22.90;83.80
30174;DHT22;16985;50.814;8.530;2022-10-17T14:45:29;22.80;84.20
30174;DHT22;16985;50.814;8.530;2022-10-17T14:48:14;22.80;84.90
30174;DHT22;16985;50.814;8.530;2022-10-17T14:51:23;22.70;85.20
30174;DHT22;16985;50.814;8.530;2022-10-17T14:54:42;22.60;85.80
30174;DHT22;16985;50.814;8.530;2022-10-17T14:56:51;22.50;86.60
30174;DHT22;16985;50.814;8.530;2022-10-17T14:59:18;22.40;87.10
30174;DHT22;16985;50.814;8.530;2022-10-17T15:01:49;22.30;87.80
30174;DHT22;16985;50.814;8.530;2022-10-17T15:04:15;22.20;88.20
30174;DHT22;16985;50.814;8.530;2022-10-17T15:06:42;22.10;88.40
30174;DHT22;16985;50.814;8.530;2022-10-17T15:09:09;22.60;89.30
30174;DHT22;16985;50.814;8.530;2022-10-17T15:11:36;22.00;89.60
30174;DHT22;16985;50.814;8.530;2022-10-17T15:14:02;21.90;90.00
30174;DHT22;16985;50.814;8.530;2022-10-17T15:16:32;21.90;90.10
30174;DHT22;16985;50.814;8.530;2022-10-17T15:18:59;21.80;90.30
30174;DHT22;16985;50.814;8.530;2022-10-17T15:21:27;21.70;90.60
30174;DHT22;16985;50.814;8.530;2022-10-17T15:23:53;21.70;90.90
30174;DHT22;16985;50.814;8.530;2022-10-17T15:26:29;21.70;91.20
30174;DHT22;16985;50.814;8.530;2022-10-17T15:28:56;21.60;91.40
30174;DHT22;16985;50.814;8.530;2022-10-17T15:31:24;21.60;91.60
30174;DHT22;16985;50.814;8.530;2022-10-17T15:33:50;21.20;91.70
30174;DHT22;16985;50.814;8.530;2022-10-17T15:38:49;21.40;92.50
30174;DHT22;16985;50.814;8.530;2022-10-17T15:41:16;21.40;92.50
30174;DHT22;16985;50.814;8.530;2022-10-17T15:43:42;21.30;92.70
30174;DHT22;16985;50.814;8.530;2022-10-17T15:46:11;21.30;92.90
30174;DHT22;16985;50.814;8.530;2022-10-17T15:48:39;21.30;93.10
30174;DHT22;16985;50.814;8.530;2022-10-17T15:51:06;21.20;93.30
30174;DHT22;16985;50.814;8.530;2022-10-17T15:53:32;21.20;93.60
30174;DHT22;16985;50.814;8.530;2022-10-17T15:55:58;21.10;94.00
30174;DHT22;16985;50.814;8.530;2022-10-17T15:58:24;21.20;94.30
30174;DHT22;16985;50.814;8.530;2022-10-17T16:00:52;21.10;94.80
30174;DHT22;16985;50.814;8.530;2022-10-17T16:03:18;20.90;95.50
30174;DHT22;16985;50.814;8.530;2022-10-17T16:05:44;20.90;96.30
30174;DHT22;16985;50.814;8.530;2022-10-17T16:08:10;20.90;96.90
30174;DHT22;16985;50.814;8.530;2022-10-17T16:10:38;20.80;97.50
30174;DHT22;16985;50.814;8.530;2022-10-17T16:13:04;20.70;98.20
30174;DHT22;16985;50.814;8.530;2022-10-17T16:15:30;20.70;98.60
30174;DHT22;16985;50.814;8.530;2022-10-17T16:17:56;20.60;98.80
30174;DHT22;16985;50.814;8.530;2022-10-17T16:20:23;20.50;98.90
30174;DHT22;16985;50.814;8.530;2022-10-17T16:22:50;20.50;99.00
30174;DHT22;16985;50.814;8.530;2022-10-17T16:25:21;20.60;99.20
30174;DHT22;16985;50.814;8.530;2022-10-17T16:27:51;20.40;99.30
30174;DHT22;16985;50.814;8.530;2022-10-17T16:30:19;20.30;99.60
30174;DHT22;16985;50.814;8.530;2022-10-17T16:32:45;20.30;99.80
30174;DHT22;16985;50.814;8.530;2022-10-17T16:35:20;20.20;99.90
30174;DHT22;16985;50.814;8.530;2022-10-17T16:37:48;20.20;99.90
30174;DHT22;16985;50.814;8.530;2022-10-17T16:40:15;19.90;99.90
30174;DHT22;16985;50.814;8.530;2022-10-17T16:42:41;20.00;99.90
30174;DHT22;16985;50.814;8.530;2022-10-17T16:45:07;19.90;99.90
30174;DHT22;16985;50.814;8.530;2022-10-17T16:47:33;19.80;99.90
30174;DHT22;16985;50.814;8.530;2022-10-17T16:49:59;19.70;99.90
30174;DHT22;16985;50.814;8.530;2022-10-17T16:52:25;19.70;99.90
30174;DHT22;16985;50.814;8.530;2022-10-17T16:54:50;19.60;99.90
30174;DHT22;16985;50.814;8.530;2022-10-17T16:57:16;19.60;99.90
30174;DHT22;16985;50.814;8.530;2022-10-17T16:59:42;19.50;99.90
30174;DHT22;16985;50.814;8.530;2022-10-17T17:02:09;19.40;99.90
30174;DHT22;16985;50.814;8.530;2022-10-17T17:04:36;19.30;99.90
30174;DHT22;16985;50.814;8.530;2022-10-17T17:07:05;19.30;99.90
30174;DHT22;16985;50.814;8.530;2022-10-17T17:09:30;19.30;99.90
30174;DHT22;16985;50.814;8.530;2022-10-17T17:11:56;19.10;99.90
30174;DHT22;16985;50.814;8.530;2022-10-17T17:14:22;19.10;99.90
30174;DHT22;16985;50.814;8.530;2022-10-17T17:16:48;19.00;99.90
30174;DHT22;16985;50.814;8.530;2022-10-17T17:19:14;18.90;99.90
30174;DHT22;16985;50.814;8.530;2022-10-17T17:21:41;18.90;99.90
30174;DHT22;16985;50.814;8.530;2022-10-17T17:24:19;18.90;99.90
30174;DHT22;16985;50.814;8.530;2022-10-17T17:26:53;18.90;99.90
30174;DHT22;16985;50.814;8.530;2022-10-17T17:29:20;18.70;99.90
30174;DHT22;16985;50.814;8.530;2022-10-17T17:31:46;18.70;99.90
30174;DHT22;16985;50.814;8.530;2022-10-17T17:34:12;18.60;99.90
30174;DHT22;16985;50.814;8.530;2022-10-17T17:36:38;18.50;99.90
30174;DHT22;16985;50.814;8.530;2022-10-17T17:39:07;18.40;99.90
30174;DHT22;16985;50.814;8.530;2022-10-17T17:41:38;18.50;99.90
30174;DHT22;16985;50.814;8.530;2022-10-17T17:44:09;18.30;99.90
30174;DHT22;16985;50.814;8.530;2022-10-17T17:46:36;18.30;99.90
30174;DHT22;16985;50.814;8.530;2022-10-17T17:49:02;18.30;99.90
30174;DHT22;16985;50.814;8.530;2022-10-17T17:51:28;18.20;99.90